Time,TemperatureF,DewpointF,PressureIn,WindDirection,WindDirectionDegrees,WindSpeedMPH,WindSpeedGustMPH,Humidity,HourlyPrecipIn,Conditions,Clouds,dailyrainin,SoftwareType,DateUTC
2013-09-30 00:22:00,67.6,29.0,30.02,WSW,256,9.0,9.0,24,0.00,,,0.00,weatherlink.com 1.10,2013-09-30 07:22:00,
2013-09-30 00:37:00,68.1,29.0,30.02,WNW,289,5.0,12.0,23,0.00,,,0.00,weatherlink.com 1.10,2013-09-30 07:37:00,
2013-09-30 00:52:00,67.7,30.0,30.01,West,274,5.0,9.0,24,0.00,,,0.00,weatherlink.com 1.10,2013-09-30 07:52:00,
2013-09-30 01:07:00,67.8,30.0,30.02,West,271,7.0,12.0,24,0.00,,,0.00,weatherlink.com 1.10,2013-09-30 08:07:00,
2013-09-30 01:22:00,67.5,29.0,30.01,WNW,293,4.0,11.0,24,0.00,,,0.00,weatherlink.com 1.10,2013-09-30 08:22:00,
2013-09-30 01:37:00,66.6,30.0,30.01,West,276,3.0,8.0,25,0.00,,,0.00,weatherlink.com 1.10,2013-09-30 08:37:00,
2013-09-30 01:52:00,66.9,31.0,30.01,West,276,8.0,13.0,26,0.00,,,0.00,weatherlink.com 1.10,2013-09-30 08:52:00,
2013-09-30 02:07:00,66.6,31.0,30.00,SW,223,9.0,14.0,26,0.00,,,0.00,weatherlink.com 1.10,2013-09-30 09:07:00,
2013-09-30 02:22:00,66.6,31.0,30.00,West,278,9.0,13.0,26,0.00,,,0.00,weatherlink.com 1.10,2013-09-30 09:22:00,
2013-09-30 02:37:00,66.6,31.0,29.99,WNW,302,7.0,13.0,26,0.00,,,0.00,weatherlink.com 1.10,2013-09-30 09:37:00,
2013-09-30 02:52:00,66.2,30.0,29.99,WNW,294,7.0,14.0,26,0.00,,,0.00,weatherlink.com 1.10,2013-09-30 09:52:00,
2013-09-30 03:07:00,66.0,30.0,29.98,WNW,285,10.0,11.0,26,0.00,,,0.00,weatherlink.com 1.10,2013-09-30 10:07:00,
2013-09-30 03:23:00,66.1,30.0,29.98,WSW,239,9.0,14.0,26,0.00,,,0.00,weatherlink.com 1.10,2013-09-30 10:23:00,
2013-09-30 03:38:00,65.6,31.0,29.98,West,277,7.0,13.0,27,0.00,,,0.00,weatherlink.com 1.10,2013-09-30 10:38:00,
2013-09-30 03:53:00,65.6,31.0,29.98,WNW,302,7.0,13.0,27,0.00,,,0.00,weatherlink.com 1.10,2013-09-30 10:53:00,
2013-09-30 04:08:00,65.5,30.0,29.98,WSW,255,3.0,11.0,27,0.00,,,0.00,weatherlink.com 1.10,2013-09-30 11:08:00,
2013-09-30 04:23:00,64.6,30.0,29.98,West,267,3.0,13.0,27,0.00,,,0.00,weatherlink.com 1.10,2013-09-30 11:23:00,
2013-09-30 04:38:00,65.0,30.0,29.98,West,263,4.0,11.0,27,0.00,,,0.00,weatherlink.com 1.10,2013-09-30 11:38:00,
2013-09-30 04:53:00,65.1,30.0,29.98,WNW,298,5.0,14.0,27,0.00,,,0.00,weatherlink.com 1.10,2013-09-30 11:53:00,
2013-09-30 05:08:00,64.4,30.0,29.97,WSW,238,5.0,8.0,28,0.00,,,0.00,weatherlink.com 1.10,2013-09-30 12:08:00,
2013-09-30 05:23:00,64.3,30.0,29.98,NW,317,0.0,6.0,28,0.00,,,0.00,weatherlink.com 1.10,2013-09-30 12:23:00,
2013-09-30 05:38:00,64.4,30.0,29.97,WSW,258,4.0,9.0,28,0.00,,,0.00,weatherlink.com 1.10,2013-09-30 12:38:00,
2013-09-30 05:53:00,63.5,31.0,29.97,WSW,255,3.0,8.0,29,0.00,,,0.00,weatherlink.com 1.10,2013-09-30 12:53:00,
2013-09-30 06:08:00,62.2,29.0,29.98,WSW,238,1.0,2.0,29,0.00,,,0.00,weatherlink.com 1.10,2013-09-30 13:08:00,
2013-09-30 06:23:00,62.0,30.0,29.97,West,262,6.0,8.0,30,0.00,,,0.00,weatherlink.com 1.10,2013-09-30 13:23:00,
2013-09-30 06:38:00,60.5,30.0,29.98,SSE,147,3.0,6.0,32,0.00,,,0.00,weatherlink.com 1.10,2013-09-30 13:38:00,
2013-09-30 06:53:00,62.1,31.0,29.98,West,281,1.0,5.0,31,0.00,,,0.00,weatherlink.com 1.10,2013-09-30 13:53:00,
2013-09-30 07:08:00,61.6,31.0,29.98,South,171,1.0,2.0,31,0.00,,,0.00,weatherlink.com 1.10,2013-09-30 14:08:00,
2013-09-30 07:23:00,64.1,32.0,29.99,WSW,257,0.0,3.0,30,0.00,,,0.00,weatherlink.com 1.10,2013-09-30 14:23:00,
2013-09-30 07:38:00,64.9,33.0,29.99,West,273,5.0,8.0,30,0.00,,,0.00,weatherlink.com 1.10,2013-09-30 14:38:00,
2013-09-30 07:53:00,65.0,33.0,30.00,WSW,237,1.0,4.0,30,0.00,,,0.00,weatherlink.com 1.10,2013-09-30 14:53:00,
2013-09-30 08:08:00,65.2,33.0,30.00,NW,316,3.0,5.0,30,0.00,,,0.00,weatherlink.com 1.10,2013-09-30 15:08:00,
2013-09-30 08:23:00,66.5,35.0,29.99,ESE,107,0.0,6.0,31,0.00,,,0.00,weatherlink.com 1.10,2013-09-30 15:23:00,
2013-09-30 08:38:00,67.5,33.0,30.00,West,281,4.0,9.0,28,0.00,,,0.00,weatherlink.com 1.10,2013-09-30 15:38:00,
2013-09-30 08:53:00,69.4,35.0,30.00,ENE,70,4.0,7.0,28,0.00,,,0.00,weatherlink.com 1.10,2013-09-30 15:53:00,
2013-09-30 09:08:00,69.7,33.0,30.00,West,269,2.0,7.0,26,0.00,,,0.00,weatherlink.com 1.10,2013-09-30 16:08:00,
2013-09-30 09:23:00,70.8,32.0,30.00,West,275,6.0,13.0,24,0.00,,,0.00,weatherlink.com 1.10,2013-09-30 16:23:00,
2013-09-30 09:38:00,71.5,33.0,30.00,NW,308,14.0,17.0,24,0.00,,,0.00,weatherlink.com 1.10,2013-09-30 16:38:00,
2013-09-30 09:53:00,72.3,32.0,30.00,WNW,291,9.0,15.0,23,0.00,,,0.00,weatherlink.com 1.10,2013-09-30 16:53:00,
2013-09-30 10:08:00,73.1,32.0,30.00,West,278,12.0,14.0,22,0.00,,,0.00,weatherlink.com 1.10,2013-09-30 17:08:00,
2013-09-30 10:23:00,73.5,32.0,30.00,NW,310,9.0,17.0,22,0.00,,,0.00,weatherlink.com 1.10,2013-09-30 17:23:00,
2013-09-30 10:38:00,74.2,32.0,29.99,West,259,11.0,17.0,21,0.00,,,0.00,weatherlink.com 1.10,2013-09-30 17:38:00,
2013-09-30 10:53:00,74.9,31.0,29.99,WNW,289,5.0,16.0,20,0.00,,,0.00,weatherlink.com 1.10,2013-09-30 17:53:00,
2013-09-30 11:08:00,75.6,32.0,29.99,WNW,283,8.0,18.0,20,0.00,,,0.00,weatherlink.com 1.10,2013-09-30 18:08:00,
2013-09-30 11:23:00,75.7,31.0,29.98,West,275,10.0,19.0,19,0.00,,,0.00,weatherlink.com 1.10,2013-09-30 18:23:00,
2013-09-30 11:39:00,76.9,30.0,29.98,NW,325,8.0,15.0,18,0.00,,,0.00,weatherlink.com 1.10,2013-09-30 18:39:00,
2013-09-30 11:54:00,77.4,29.0,29.98,NW,314,14.0,16.0,17,0.00,,,0.00,weatherlink.com 1.10,2013-09-30 18:54:00,
2013-09-30 12:09:00,78.0,30.0,29.98,West,263,6.0,14.0,17,0.00,,,0.00,weatherlink.com 1.10,2013-09-30 19:09:00,
2013-09-30 12:24:00,78.5,29.0,29.97,WNW,291,7.0,13.0,16,0.00,,,0.00,weatherlink.com 1.10,2013-09-30 19:24:00,
2013-09-30 12:39:00,78.5,29.0,29.96,NNW,342,4.0,17.0,16,0.00,,,0.00,weatherlink.com 1.10,2013-09-30 19:39:00,
2013-09-30 12:54:00,79.7,28.0,29.96,NE,36,6.0,14.0,15,0.00,,,0.00,weatherlink.com 1.10,2013-09-30 19:54:00,
2013-09-30 13:09:00,80.5,29.0,29.95,North,4,10.0,18.0,15,0.00,,,0.00,weatherlink.com 1.10,2013-09-30 20:09:00,
2013-09-30 13:24:00,80.3,27.0,29.94,NW,317,12.0,18.0,14,0.00,,,0.00,weatherlink.com 1.10,2013-09-30 20:24:00,
2013-09-30 13:39:00,80.4,25.0,29.94,West,269,9.0,19.0,13,0.00,,,0.00,weatherlink.com 1.10,2013-09-30 20:39:00,
2013-09-30 13:54:00,80.7,27.0,29.93,WNW,287,10.0,19.0,14,0.00,,,0.00,weatherlink.com 1.10,2013-09-30 20:54:00,
2013-09-30 14:09:00,80.2,27.0,29.93,West,260,8.0,20.0,14,0.00,,,0.00,weatherlink.com 1.10,2013-09-30 21:09:00,
2013-09-30 14:24:00,79.8,30.0,29.93,NW,316,16.0,19.0,16,0.00,,,0.00,weatherlink.com 1.10,2013-09-30 21:24:00,
2013-09-30 14:39:00,79.7,26.0,29.93,WNW,297,8.0,17.0,14,0.00,,,0.00,weatherlink.com 1.10,2013-09-30 21:39:00,
2013-09-30 14:54:00,79.5,29.0,29.93,WNW,290,13.0,19.0,16,0.00,,,0.00,weatherlink.com 1.10,2013-09-30 21:54:00,
2013-09-30 15:09:00,78.2,28.0,29.92,NW,310,13.0,23.0,16,0.00,,,0.00,weatherlink.com 1.10,2013-09-30 22:09:00,
2013-09-30 15:24:00,78.1,28.0,29.92,WNW,300,13.0,20.0,16,0.00,,,0.00,weatherlink.com 1.10,2013-09-30 22:24:00,
2013-09-30 15:39:00,77.5,28.0,29.91,NW,310,21.0,23.0,16,0.00,,,0.00,weatherlink.com 1.10,2013-09-30 22:39:00,
2013-09-30 15:54:00,77.5,28.0,29.91,NW,307,16.0,22.0,16,0.00,,,0.00,weatherlink.com 1.10,2013-09-30 22:54:00,
2013-09-30 16:09:00,77.5,28.0,29.90,West,277,11.0,22.0,16,0.00,,,0.00,weatherlink.com 1.10,2013-09-30 23:09:00,
2013-09-30 16:24:00,77.2,28.0,29.90,NW,307,15.0,22.0,16,0.00,,,0.00,weatherlink.com 1.10,2013-09-30 23:24:00,
2013-09-30 16:39:00,76.4,27.0,29.90,WNW,290,14.0,26.0,16,0.00,,,0.00,weatherlink.com 1.10,2013-09-30 23:39:00,
2013-09-30 16:54:00,76.3,28.0,29.90,NW,308,16.0,24.0,17,0.00,,,0.00,weatherlink.com 1.10,2013-09-30 23:54:00,
2013-09-30 17:09:00,75.6,28.0,29.90,West,278,17.0,27.0,17,0.00,,,0.00,weatherlink.com 1.10,2013-10-01 00:09:00,
2013-09-30 17:24:00,75.0,27.0,29.90,WNW,285,15.0,25.0,17,0.00,,,0.00,weatherlink.com 1.10,2013-10-01 00:24:00,
2013-09-30 17:39:00,75.0,27.0,29.89,NW,309,13.0,24.0,17,0.00,,,0.00,weatherlink.com 1.10,2013-10-01 00:39:00,
2013-09-30 17:54:00,74.1,28.0,29.90,West,278,13.0,21.0,18,0.00,,,0.00,weatherlink.com 1.10,2013-10-01 00:54:00,
2013-09-30 18:09:00,72.8,28.0,29.89,NW,304,10.0,25.0,19,0.00,,,0.00,weatherlink.com 1.10,2013-10-01 01:09:00,
2013-09-30 18:24:00,72.2,29.0,29.89,WNW,290,13.0,23.0,20,0.00,,,0.00,weatherlink.com 1.10,2013-10-01 01:24:00,
2013-09-30 18:39:00,71.7,28.0,29.89,West,261,11.0,19.0,20,0.00,,,0.00,weatherlink.com 1.10,2013-10-01 01:39:00,
2013-09-30 18:54:00,71.3,29.0,29.89,WSW,250,6.0,21.0,21,0.00,,,0.00,weatherlink.com 1.10,2013-10-01 01:54:00,
2013-09-30 19:09:00,71.6,27.0,29.89,WNW,292,10.0,23.0,19,0.00,,,0.00,weatherlink.com 1.10,2013-10-01 02:09:00,
2013-09-30 19:24:00,70.5,30.0,29.89,West,259,19.0,19.0,22,0.00,,,0.00,weatherlink.com 1.10,2013-10-01 02:24:00,
2013-09-30 19:39:00,70.2,30.0,29.90,West,260,11.0,19.0,22,0.00,,,0.00,weatherlink.com 1.10,2013-10-01 02:39:00,
2013-09-30 19:54:00,70.3,30.0,29.90,West,275,10.0,17.0,22,0.00,,,0.00,weatherlink.com 1.10,2013-10-01 02:54:00,
2013-09-30 20:09:00,70.2,28.0,29.89,West,265,7.0,16.0,21,0.00,,,0.00,weatherlink.com 1.10,2013-10-01 03:09:00,
2013-09-30 20:24:00,70.2,27.0,29.90,West,280,9.0,16.0,20,0.00,,,0.00,weatherlink.com 1.10,2013-10-01 03:24:00,
2013-09-30 20:39:00,70.2,27.0,29.90,West,271,13.0,19.0,20,0.00,,,0.00,weatherlink.com 1.10,2013-10-01 03:39:00,
2013-09-30 20:54:00,69.5,28.0,29.91,WSW,239,9.0,17.0,21,0.00,,,0.00,weatherlink.com 1.10,2013-10-01 03:54:00,
2013-09-30 21:09:00,69.3,29.0,29.91,WSW,256,14.0,19.0,22,0.00,,,0.00,weatherlink.com 1.10,2013-10-01 04:09:00,
2013-09-30 21:24:00,69.2,28.0,29.91,West,266,14.0,18.0,21,0.00,,,0.00,weatherlink.com 1.10,2013-10-01 04:24:00,
2013-09-30 21:39:00,68.9,27.0,29.91,WSW,253,11.0,14.0,21,0.00,,,0.00,weatherlink.com 1.10,2013-10-01 04:39:00,
2013-09-30 21:54:00,67.9,29.0,29.91,WSW,249,11.0,12.0,23,0.00,,,0.00,weatherlink.com 1.10,2013-10-01 04:54:00,
2013-09-30 22:09:00,67.9,28.0,29.90,WSW,255,13.0,17.0,22,0.00,,,0.00,weatherlink.com 1.10,2013-10-01 05:09:00,
2013-09-30 22:24:00,67.5,28.0,29.90,WSW,253,15.0,17.0,23,0.00,,,0.00,weatherlink.com 1.10,2013-10-01 05:24:00,
2013-09-30 22:39:00,67.2,28.0,29.90,West,281,9.0,17.0,23,0.00,,,0.00,weatherlink.com 1.10,2013-10-01 05:39:00,
2013-09-30 22:54:00,68.3,27.0,29.90,West,276,11.0,15.0,21,0.00,,,0.00,weatherlink.com 1.10,2013-10-01 05:54:00,
2013-09-30 23:09:00,68.9,26.0,29.90,West,276,13.0,21.0,20,0.00,,,0.00,weatherlink.com 1.10,2013-10-01 06:09:00,
2013-09-30 23:24:00,69.0,26.0,29.90,WNW,282,10.0,18.0,20,0.00,,,0.00,weatherlink.com 1.10,2013-10-01 06:24:00,
2013-09-30 23:39:00,67.9,28.0,29.90,West,262,11.0,12.0,22,0.00,,,0.00,weatherlink.com 1.10,2013-10-01 06:39:00,
2013-09-30 23:54:00,67.7,27.0,29.90,WNW,289,8.0,11.0,22,0.00,,,0.00,weatherlink.com 1.10,2013-10-01 06:54:00,